Terminal Aerodrome Forecast
Issued by NWS

Home | Current Version | Previous Version | Text Only | Print | Product List | Glossary On
Versions: 1 2 3 4 5 6 7 8 9 10 11 12 13 14 15 16 17 18 19 20 21 22 23 24 25 26
307
FTUS45 KTFX 192320
TAFHLN
TAF
KHLN 192320Z 2000/2024 24014G23KT P6SM VCSH SCT060 BKN100
      TEMPO 2000/2004 -SHRA BKN060
     FM200900 VRB05KT P6SM SCT040 OVC080 PROB30 2009/2012 4SM SHRA
      BKN040
     FM201200 28009KT 6SM SHRA SCT027 OVC050
     FM201700 33007KT 6SM -RA OVC020
     FM202000 34012G21KT 6SM -RA SCT015 OVC040=

USA.gov is the U.S. government's official web portal to all federal, state and local government web resources and services.